LFRH 221130Z AUTO 25017KT 9999 OVC017 12/08 Q1030 BECMG 24010G25KT

ElémentsDécodage
LFRH Station météo située sur l'aérodrome de LORIENT Lann-Bihoué
221130Z émis le 22 du mois à 11h30 UTC
AUTO Bulletin édité par un automate
25017KT vent du 250°, 17 noeuds
9999 visibilité horizontale supérieure à 10 Km
OVC017 couverture nuageuse totale (8/8) à 1700 pieds
12/08 température 12°C, point de rosée 08°C
 soit une humidité relative de 77%
Q1030 la pression au niveau de la mer (QNH) est de 1030 hPa
BECMG fluctuation du temps prévue
24010G25KT vent du 240°, moyenne: 10 noeuds, avec rafales à 25 noeuds